Time;durP1;ratioP1;P1;durP2;ratioP2;P2;SDS_P1;SDS_P2;PMS_P1;PMS_P2;Temp;Humidity;BMP_temperature;BMP_pressure;BME280_temperature;BME280_humidity;BME280_pressure;Samples;Min_cycle;Max_cycle;Signal;HPM_P1;HPM_P2
2023/03/30 00:00:43;;;;;;;;;;;11.00;99.90;;;;;;4963648;28;20051;-91
2023/03/30 00:03:10;;;;;;;;;;;11.00;99.90;;;;;;4968546;28;19933;-89
2023/03/30 00:05:38;;;;;;;;;;;11.00;99.90;;;;;;4965242;28;20005;-89
2023/03/30 00:08:05;;;;;;;;;;;11.00;99.90;;;;;;4960963;28;20009;-91
2023/03/30 00:10:33;;;;;;;;;;;11.00;99.90;;;;;;4965277;28;20018;-89
2023/03/30 00:13:00;;;;;;;;;;;11.00;99.90;;;;;;4963481;28;19949;-93
2023/03/30 00:15:27;;;;;;;;;;;11.00;99.90;;;;;;4968831;28;20024;-91
2023/03/30 00:17:54;;;;;;;;;;;11.00;99.90;;;;;;4967973;28;20017;-88
2023/03/30 00:20:22;;;;;;;;;;;11.00;99.90;;;;;;4968067;28;19926;-91
2023/03/30 00:22:52;;;;;;;;;;;11.00;99.90;;;;;;4964466;28;19969;-90
2023/03/30 00:25:19;;;;;;;;;;;11.00;99.90;;;;;;4966744;28;19986;-89
2023/03/30 00:27:47;;;;;;;;;;;11.00;99.90;;;;;;4968500;28;20412;-91
2023/03/30 00:30:15;;;;;;;;;;;11.00;99.90;;;;;;4963454;28;19930;-89
2023/03/30 00:32:42;;;;;;;;;;;11.00;99.90;;;;;;4984376;28;19977;-90
2023/03/30 00:35:11;;;;;;;;;;;11.00;99.90;;;;;;4967426;28;20004;-88
2023/03/30 00:37:38;;;;;;;;;;;11.00;99.90;;;;;;4966825;28;19941;-92
2023/03/30 00:40:06;;;;;;;;;;;11.00;99.90;;;;;;4965480;28;19932;-90
2023/03/30 00:42:34;;;;;;;;;;;11.10;99.90;;;;;;4969214;28;19926;-90
2023/03/30 00:45:17;;;;;;;;;;;11.10;99.90;;;;;;4966545;28;19926;-90
2023/03/30 00:47:46;;;;;;;;;;;11.10;99.90;;;;;;4964600;28;19926;-91
2023/03/30 00:50:13;;;;;;;;;;;11.00;99.90;;;;;;4966283;28;19977;-91
2023/03/30 00:52:42;;;;;;;;;;;11.00;99.90;;;;;;4969528;28;19933;-90
2023/03/30 00:55:09;;;;;;;;;;;11.00;99.90;;;;;;4964592;28;20374;-90
2023/03/30 00:57:38;;;;;;;;;;;11.10;99.90;;;;;;4968956;28;19941;-91
2023/03/30 01:00:10;;;;;;;;;;;11.00;99.90;;;;;;4971581;28;19956;-88
2023/03/30 01:02:41;;;;;;;;;;;11.00;99.90;;;;;;4967725;28;19933;-91
2023/03/30 01:05:08;;;;;;;;;;;11.00;99.90;;;;;;4967281;28;20282;-90
2023/03/30 01:07:37;;;;;;;;;;;11.00;99.90;;;;;;4969039;28;20000;-91
2023/03/30 01:10:04;;;;;;;;;;;11.00;99.90;;;;;;4970240;28;19926;-91
2023/03/30 01:12:31;;;;;;;;;;;11.00;99.90;;;;;;4963298;28;20400;-90
2023/03/30 01:14:58;;;;;;;;;;;11.00;99.90;;;;;;4962585;28;19982;-91
2023/03/30 01:17:28;;;;;;;;;;;11.00;99.90;;;;;;4967845;28;19976;-93
2023/03/30 01:20:19;;;;;;;;;;;11.00;99.90;;;;;;4965030;28;20441;-90
2023/03/30 01:23:00;;;;;;;;;;;10.90;99.90;;;;;;4944513;28;20455;-93
2023/03/30 01:25:46;;;;;;;;;;;11.00;99.90;;;;;;4963634;28;19926;-94
2023/03/30 01:28:21;;;;;;;;;;;10.90;99.90;;;;;;4966092;28;20036;-90
2023/03/30 01:31:09;;;;;;;;;;;10.90;99.90;;;;;;4972270;28;19926;-91
2023/03/30 01:33:54;;;;;;;;;;;10.90;99.90;;;;;;4967044;28;19965;-90
2023/03/30 01:36:44;;;;;;;;;;;10.90;99.90;;;;;;4989548;28;19926;-90
2023/03/30 01:39:26;;;;;;;;;;;10.90;99.90;;;;;;4969899;28;20405;-90
2023/03/30 01:41:56;;;;;;;;;;;10.80;99.90;;;;;;4967692;28;19973;-90
2023/03/30 01:44:28;;;;;;;;;;;10.80;99.90;;;;;;4978674;28;19981;-90
2023/03/30 01:46:57;;;;;;;;;;;10.80;99.90;;;;;;4975285;28;19930;-90
2023/03/30 01:49:28;;;;;;;;;;;10.80;99.90;;;;;;4970249;28;19926;-90
2023/03/30 01:52:01;;;;;;;;;;;10.80;99.90;;;;;;4968081;28;20008;-89
2023/03/30 01:54:32;;;;;;;;;;;10.80;99.90;;;;;;4969204;28;19926;-93
2023/03/30 01:57:02;;;;;;;;;;;10.80;99.90;;;;;;4963836;28;19935;-93
2023/03/30 01:59:31;;;;;;;;;;;10.80;99.90;;;;;;4963108;28;19930;-91
2023/03/30 02:02:01;;;;;;;;;;;10.80;99.90;;;;;;4965875;28;19977;-92
2023/03/30 02:04:32;;;;;;;;;;;10.80;99.90;;;;;;4964150;28;20282;-90
2023/03/30 02:07:00;;;;;;;;;;;10.80;99.90;;;;;;4963465;28;19934;-91
2023/03/30 02:09:29;;;;;;;;;;;10.80;99.90;;;;;;4967494;28;20389;-89
2023/03/30 02:11:58;;;;;;;;;;;10.80;99.90;;;;;;4965630;28;19981;-91
2023/03/30 02:14:27;;;;;;;;;;;10.80;99.90;;;;;;4960843;28;20024;-93
2023/03/30 02:16:56;;;;;;;;;;;10.80;99.90;;;;;;4965690;28;19980;-90
2023/03/30 02:19:23;;;;;;;;;;;10.90;99.90;;;;;;4962790;28;20381;-92
2023/03/30 02:21:50;;;;;;;;;;;10.90;99.90;;;;;;4962193;28;19933;-90
2023/03/30 02:24:21;;;;;;;;;;;10.90;99.90;;;;;;4957771;28;20339;-89
2023/03/30 02:26:49;;;;;;;;;;;10.90;99.90;;;;;;4967882;28;20020;-93
2023/03/30 02:29:17;;;;;;;;;;;10.90;99.90;;;;;;4959536;28;19949;-91
2023/03/30 02:31:46;;;;;;;;;;;10.90;99.90;;;;;;4955024;28;19926;-93
2023/03/30 02:34:18;;;;;;;;;;;10.90;99.90;;;;;;4961694;28;19945;-93
2023/03/30 02:36:55;;;;;;;;;;;10.90;99.90;;;;;;4968184;28;19981;-91
2023/03/30 02:39:29;;;;;;;;;;;10.90;99.90;;;;;;4961565;28;20030;-90
2023/03/30 02:42:06;;;;;;;;;;;10.90;99.90;;;;;;4966497;28;19930;-90
2023/03/30 02:44:41;;;;;;;;;;;10.90;99.90;;;;;;4965826;28;20001;-90
2023/03/30 02:47:09;;;;;;;;;;;10.90;99.90;;;;;;4981708;28;19926;-95
2023/03/30 02:49:42;;;;;;;;;;;10.90;99.90;;;;;;4982015;28;19997;-94
2023/03/30 02:52:15;;;;;;;;;;;10.90;99.90;;;;;;4969898;28;20312;-93
2023/03/30 02:54:50;;;;;;;;;;;10.90;99.90;;;;;;4955417;28;20056;-90
2023/03/30 02:57:23;;;;;;;;;;;10.90;99.90;;;;;;4963034;28;19936;-88
2023/03/30 02:59:54;;;;;;;;;;;10.90;99.90;;;;;;4963134;28;19935;-90
2023/03/30 03:02:23;;;;;;;;;;;10.90;99.90;;;;;;4987928;28;20016;-90
2023/03/30 03:04:57;;;;;;;;;;;10.90;99.90;;;;;;4962558;28;20034;-90
2023/03/30 03:07:43;;;;;;;;;;;10.90;99.90;;;;;;4958101;28;19933;-92
2023/03/30 03:10:11;;;;;;;;;;;10.90;99.90;;;;;;4982509;28;19934;-90
2023/03/30 03:12:39;;;;;;;;;;;10.90;99.90;;;;;;4968048;28;20344;-91
2023/03/30 03:15:08;;;;;;;;;;;10.90;99.90;;;;;;4963308;28;20191;-91
2023/03/30 03:17:40;;;;;;;;;;;10.90;99.90;;;;;;4964476;28;19930;-90
2023/03/30 03:20:10;;;;;;;;;;;10.90;99.90;;;;;;4966068;28;19926;-91
2023/03/30 03:22:37;;;;;;;;;;;10.90;99.90;;;;;;4968774;28;19941;-91
2023/03/30 03:25:04;;;;;;;;;;;10.90;99.90;;;;;;4969725;28;19997;-90
2023/03/30 03:27:50;;;;;;;;;;;10.90;99.90;;;;;;4966318;28;19926;-91
2023/03/30 03:30:22;;;;;;;;;;;10.80;99.90;;;;;;4962994;28;20041;-91
2023/03/30 03:33:00;;;;;;;;;;;10.80;99.90;;;;;;4964073;28;19934;-93
2023/03/30 03:35:28;;;;;;;;;;;10.80;99.90;;;;;;4985102;28;19969;-92
2023/03/30 03:37:56;;;;;;;;;;;10.80;99.90;;;;;;4963482;28;19972;-90
2023/03/30 03:40:23;;;;;;;;;;;10.80;99.90;;;;;;4968292;28;20052;-91
2023/03/30 03:42:51;;;;;;;;;;;10.80;99.90;;;;;;4962741;28;20026;-90
2023/03/30 03:45:18;;;;;;;;;;;10.80;99.90;;;;;;4964293;28;19926;-92
2023/03/30 03:47:55;;;;;;;;;;;10.80;99.90;;;;;;4961548;28;19931;-91
2023/03/30 03:50:36;;;;;;;;;;;10.80;99.90;;;;;;4960462;28;19934;-91
2023/03/30 03:53:03;;;;;;;;;;;10.70;99.90;;;;;;4963702;28;20556;-91
2023/03/30 03:55:33;;;;;;;;;;;10.70;99.90;;;;;;4963937;28;19926;-91
2023/03/30 03:58:00;;;;;;;;;;;10.70;99.90;;;;;;4963487;28;19936;-91
2023/03/30 04:00:28;;;;;;;;;;;10.70;99.90;;;;;;4973054;28;19947;-93
2023/03/30 04:02:57;;;;;;;;;;;10.70;99.90;;;;;;4968515;28;20030;-91
2023/03/30 04:05:25;;;;;;;;;;;10.70;99.90;;;;;;4964626;28;19926;-90
2023/03/30 04:07:52;;;;;;;;;;;10.70;99.90;;;;;;4976963;28;19926;-91
2023/03/30 04:10:20;;;;;;;;;;;10.70;99.90;;;;;;4963799;28;19957;-91
2023/03/30 04:12:58;;;;;;;;;;;10.70;99.90;;;;;;4963722;28;19992;-92
2023/03/30 04:15:42;;;;;;;;;;;10.60;99.90;;;;;;4955765;28;19997;-90
2023/03/30 04:18:32;;;;;;;;;;;10.60;99.90;;;;;;4962174;28;20305;-91
2023/03/30 04:21:19;;;;;;;;;;;10.60;99.90;;;;;;4960508;28;19938;-91
2023/03/30 04:23:58;;;;;;;;;;;10.60;99.90;;;;;;4954329;28;19930;-93
2023/03/30 04:26:47;;;;;;;;;;;10.60;99.90;;;;;;4958063;28;19984;-91
2023/03/30 04:29:39;;;;;;;;;;;10.60;99.90;;;;;;4960653;28;19942;-91
2023/03/30 04:32:25;;;;;;;;;;;10.60;99.90;;;;;;4960917;28;19933;-91
2023/03/30 04:34:58;;;;;;;;;;;10.60;99.90;;;;;;4958580;28;19926;-91
2023/03/30 04:37:40;;;;;;;;;;;10.60;99.90;;;;;;4956504;28;19931;-90
2023/03/30 04:40:37;;;;;;;;;;;10.50;99.90;;;;;;4959284;28;19934;-91
2023/03/30 04:43:12;;;;;;;;;;;10.50;99.90;;;;;;4961535;28;20348;-93
2023/03/30 04:45:58;;;;;;;;;;;10.50;99.90;;;;;;4957537;28;19933;-91
2023/03/30 04:48:43;;;;;;;;;;;10.50;99.90;;;;;;4956707;28;20400;-91
2023/03/30 04:51:38;;;;;;;;;;;10.50;99.90;;;;;;4955610;28;20033;-92
2023/03/30 04:54:29;;;;;;;;;;;10.50;99.90;;;;;;4964255;28;20504;-91
2023/03/30 04:56:56;;;;;;;;;;;10.50;99.90;;;;;;4957815;28;20051;-91
2023/03/30 04:59:52;;;;;;;;;;;10.50;99.90;;;;;;4959179;28;20397;-91
2023/03/30 05:02:37;;;;;;;;;;;10.50;99.90;;;;;;4960507;28;19933;-92
2023/03/30 05:05:13;;;;;;;;;;;10.50;99.90;;;;;;4956664;28;19978;-82
2023/03/30 05:08:11;;;;;;;;;;;10.40;99.90;;;;;;4943562;28;20591;-83
2023/03/30 05:11:03;;;;;;;;;;;10.50;99.90;;;;;;4958018;28;19930;-91
2023/03/30 05:13:50;;;;;;;;;;;10.50;99.90;;;;;;4961145;28;20324;-89
2023/03/30 05:16:33;;;;;;;;;;;10.50;99.90;;;;;;4958488;28;19930;-92
2023/03/30 05:19:23;;;;;;;;;;;10.50;99.90;;;;;;4950342;28;19926;-92
2023/03/30 05:22:07;;;;;;;;;;;10.50;99.90;;;;;;4959084;28;19931;-90
2023/03/30 05:24:38;;;;;;;;;;;10.50;99.90;;;;;;4964669;28;19930;-89
2023/03/30 05:27:23;;;;;;;;;;;10.50;99.90;;;;;;4964189;28;20810;-89
2023/03/30 05:30:01;;;;;;;;;;;10.40;99.90;;;;;;4969769;28;19930;-89
2023/03/30 05:32:34;;;;;;;;;;;10.50;99.90;;;;;;4963866;28;19933;-90
2023/03/30 05:35:13;;;;;;;;;;;10.40;99.90;;;;;;4967484;28;19933;-90
2023/03/30 05:37:53;;;;;;;;;;;10.50;99.90;;;;;;4960775;28;19937;-89
2023/03/30 05:40:41;;;;;;;;;;;10.40;99.90;;;;;;4952318;28;19932;-92
2023/03/30 05:43:34;;;;;;;;;;;10.40;99.90;;;;;;4948197;28;19957;-89
2023/03/30 05:46:12;;;;;;;;;;;10.40;99.90;;;;;;4960811;28;19934;-88
2023/03/30 05:48:59;;;;;;;;;;;10.40;99.90;;;;;;4957257;28;19930;-88
2023/03/30 05:51:32;;;;;;;;;;;10.40;99.90;;;;;;4957995;28;19934;-88
2023/03/30 05:54:14;;;;;;;;;;;10.40;99.90;;;;;;4961117;28;20331;-88
2023/03/30 05:57:00;;;;;;;;;;;10.40;99.90;;;;;;4957249;28;20508;-92
2023/03/30 05:59:39;;;;;;;;;;;10.30;99.90;;;;;;4973011;28;20496;-88
2023/03/30 06:02:23;;;;;;;;;;;10.40;99.90;;;;;;4964277;28;19930;-91
2023/03/30 06:04:52;;;;;;;;;;;10.40;99.90;;;;;;4962219;28;19926;-87
2023/03/30 06:07:19;;;;;;;;;;;10.30;99.90;;;;;;4958823;28;19950;-91
2023/03/30 06:09:46;;;;;;;;;;;10.30;99.90;;;;;;4961624;28;20345;-93
2023/03/30 06:12:24;;;;;;;;;;;10.30;99.90;;;;;;4961318;28;19934;-90
2023/03/30 06:14:51;;;;;;;;;;;10.30;99.90;;;;;;4960199;28;19926;-88
2023/03/30 06:17:41;;;;;;;;;;;10.30;99.90;;;;;;4972258;28;19926;-93
2023/03/30 06:20:11;;;;;;;;;;;10.40;99.90;;;;;;4984538;28;19926;-90
2023/03/30 06:22:40;;;;;;;;;;;10.30;99.90;;;;;;4972901;28;20270;-90
2023/03/30 06:25:13;;;;;;;;;;;10.30;99.90;;;;;;4956924;28;19930;-88
2023/03/30 06:27:42;;;;;;;;;;;10.30;99.90;;;;;;4962434;28;20012;-88
2023/03/30 06:30:10;;;;;;;;;;;10.30;99.90;;;;;;4959025;28;19992;-90
2023/03/30 06:32:39;;;;;;;;;;;10.30;99.90;;;;;;4963147;28;19957;-88
2023/03/30 06:35:18;;;;;;;;;;;10.30;99.90;;;;;;4957690;28;19927;-89
2023/03/30 06:37:45;;;;;;;;;;;10.30;99.90;;;;;;4960252;28;20198;-89
2023/03/30 06:40:13;;;;;;;;;;;10.30;99.90;;;;;;4955355;28;19950;-91
2023/03/30 06:42:43;;;;;;;;;;;10.30;99.90;;;;;;4965382;28;19926;-89
2023/03/30 06:45:22;;;;;;;;;;;10.30;99.90;;;;;;4959737;28;19930;-90
2023/03/30 06:47:49;;;;;;;;;;;10.30;99.90;;;;;;4963513;28;20278;-91
2023/03/30 06:50:16;;;;;;;;;;;10.30;99.90;;;;;;4972104;28;19941;-92
2023/03/30 06:53:03;;;;;;;;;;;10.30;99.90;;;;;;4959665;28;19930;-88
2023/03/30 06:55:39;;;;;;;;;;;10.30;99.90;;;;;;4961569;28;19937;-88
2023/03/30 06:58:07;;;;;;;;;;;10.30;99.90;;;;;;4960579;28;19989;-88
2023/03/30 07:00:35;;;;;;;;;;;10.30;99.90;;;;;;4963123;28;19930;-86
2023/03/30 07:03:37;;;;;;;;;;;10.30;99.90;;;;;;4917632;29;19935;-88
2023/03/30 07:06:12;;;;;;;;;;;10.30;99.90;;;;;;4969194;28;19989;-91
2023/03/30 07:08:40;;;;;;;;;;;10.30;99.90;;;;;;4968796;28;19926;-88
2023/03/30 07:11:09;;;;;;;;;;;10.30;99.90;;;;;;4962338;28;19973;-88
2023/03/30 07:13:40;;;;;;;;;;;10.30;99.90;;;;;;4962111;28;19926;-87
2023/03/30 07:16:09;;;;;;;;;;;10.30;99.90;;;;;;4960999;28;20420;-90
2023/03/30 07:18:36;;;;;;;;;;;10.30;99.90;;;;;;4962926;28;19941;-89
2023/03/30 07:21:04;;;;;;;;;;;10.30;99.90;;;;;;4962919;28;19938;-89
2023/03/30 07:23:36;;;;;;;;;;;10.30;99.90;;;;;;4962369;28;19935;-92
2023/03/30 07:26:02;;;;;;;;;;;10.40;99.90;;;;;;4976194;28;19934;-90
2023/03/30 07:28:47;;;;;;;;;;;10.40;99.90;;;;;;4959582;28;19931;-88
2023/03/30 07:31:15;;;;;;;;;;;10.40;99.90;;;;;;4958272;28;19933;-90
2023/03/30 07:33:43;;;;;;;;;;;10.40;99.90;;;;;;4960219;28;19930;-89
2023/03/30 07:36:14;;;;;;;;;;;10.40;99.90;;;;;;4957465;28;20294;-91
2023/03/30 07:38:40;;;;;;;;;;;10.40;99.90;;;;;;4972603;28;20210;-88
2023/03/30 07:41:08;;;;;;;;;;;10.40;99.90;;;;;;4954566;28;20021;-88
2023/03/30 07:43:36;;;;;;;;;;;10.40;99.90;;;;;;4975813;28;19974;-88
2023/03/30 07:46:04;;;;;;;;;;;10.50;99.90;;;;;;4954177;28;19938;-89
2023/03/30 07:48:37;;;;;;;;;;;10.40;99.90;;;;;;4954348;28;20146;-92
2023/03/30 07:51:05;;;;;;;;;;;10.40;99.90;;;;;;4952677;28;19938;-90
2023/03/30 07:53:34;;;;;;;;;;;10.40;99.90;;;;;;4954857;28;19977;-91
2023/03/30 07:56:06;;;;;;;;;;;10.50;99.90;;;;;;4960685;28;19934;-89
2023/03/30 07:58:42;;;;;;;;;;;10.50;99.90;;;;;;4956473;28;19974;-89
2023/03/30 08:01:12;;;;;;;;;;;10.50;99.90;;;;;;4961232;28;19926;-91
2023/03/30 08:04:08;;;;;;;;;;;10.60;99.90;;;;;;4978703;28;19932;-88
2023/03/30 08:06:36;;;;;;;;;;;10.60;99.90;;;;;;4974193;28;20323;-94
2023/03/30 08:09:03;;;;;;;;;;;10.60;99.90;;;;;;4958885;28;19938;-89
2023/03/30 08:11:32;;;;;;;;;;;10.60;99.90;;;;;;4960188;28;20296;-87
2023/03/30 08:13:58;;;;;;;;;;;10.60;99.90;;;;;;4960682;28;20363;-88
2023/03/30 08:16:27;;;;;;;;;;;10.60;99.90;;;;;;4958166;28;19926;-89
2023/03/30 08:18:54;;;;;;;;;;;10.60;99.90;;;;;;4970864;28;20025;-90
2023/03/30 08:21:23;;;;;;;;;;;10.60;99.90;;;;;;4959625;28;19930;-88
2023/03/30 08:23:50;;;;;;;;;;;10.60;99.90;;;;;;4959795;28;20388;-88
2023/03/30 08:26:17;;;;;;;;;;;10.60;99.90;;;;;;4958395;28;19934;-88
2023/03/30 08:28:44;;;;;;;;;;;10.60;99.90;;;;;;4956816;28;19969;-92
2023/03/30 08:31:11;;;;;;;;;;;10.60;99.90;;;;;;4962135;28;20630;-88
2023/03/30 08:33:39;;;;;;;;;;;10.60;99.90;;;;;;4960545;28;19930;-87
2023/03/30 08:36:06;;;;;;;;;;;10.60;99.90;;;;;;4963123;28;19981;-89
2023/03/30 08:38:33;;;;;;;;;;;10.60;99.90;;;;;;4961177;28;19935;-88
2023/03/30 08:41:00;;;;;;;;;;;10.60;99.90;;;;;;4962021;28;19941;-91
2023/03/30 08:43:41;;;;;;;;;;;10.60;99.90;;;;;;4960720;28;19926;-89
2023/03/30 08:46:10;;;;;;;;;;;10.60;99.90;;;;;;4957664;28;19926;-88
2023/03/30 08:48:41;;;;;;;;;;;10.60;99.90;;;;;;4962365;28;19969;-89
2023/03/30 08:51:11;;;;;;;;;;;10.60;99.90;;;;;;4959624;28;19937;-88
2023/03/30 08:53:38;;;;;;;;;;;10.60;99.90;;;;;;4967402;28;20024;-87
2023/03/30 08:56:09;;;;;;;;;;;10.60;99.90;;;;;;4970522;28;19933;-88
2023/03/30 08:58:40;;;;;;;;;;;10.70;99.90;;;;;;4967687;28;19934;-88
2023/03/30 09:01:11;;;;;;;;;;;10.70;99.90;;;;;;4964698;28;19933;-93
2023/03/30 09:03:42;;;;;;;;;;;10.70;99.90;;;;;;4961640;28;19937;-88
2023/03/30 09:06:11;;;;;;;;;;;10.80;99.90;;;;;;4961676;28;19930;-91
2023/03/30 09:08:38;;;;;;;;;;;10.90;99.90;;;;;;4963795;28;19969;-87
2023/03/30 09:11:10;;;;;;;;;;;10.90;99.90;;;;;;4965483;28;19932;-90
2023/03/30 09:13:38;;;;;;;;;;;11.00;99.90;;;;;;4960958;28;19973;-88
2023/03/30 09:16:11;;;;;;;;;;;11.10;99.90;;;;;;4960629;28;19934;-88
2023/03/30 09:18:38;;;;;;;;;;;11.10;99.90;;;;;;4963458;28;19940;-89
2023/03/30 09:21:10;;;;;;;;;;;11.20;99.90;;;;;;4963931;28;20449;-90
2023/03/30 09:23:38;;;;;;;;;;;11.20;99.90;;;;;;4963547;28;19971;-89
2023/03/30 09:26:10;;;;;;;;;;;11.20;99.90;;;;;;4964395;28;19937;-88
2023/03/30 09:28:41;;;;;;;;;;;11.30;99.90;;;;;;4963241;28;20385;-88
2023/03/30 09:31:11;;;;;;;;;;;11.30;99.90;;;;;;4964275;28;20032;-89
2023/03/30 09:33:44;;;;;;;;;;;11.30;99.90;;;;;;4953461;28;19930;-89
2023/03/30 09:36:14;;;;;;;;;;;11.40;99.90;;;;;;4961021;28;20397;-88
2023/03/30 09:38:42;;;;;;;;;;;11.40;99.90;;;;;;4963354;28;19926;-87
2023/03/30 09:41:16;;;;;;;;;;;11.40;99.90;;;;;;4961289;28;19937;-87
2023/03/30 09:43:45;;;;;;;;;;;11.30;99.90;;;;;;4967026;28;20456;-88
2023/03/30 09:46:12;;;;;;;;;;;11.30;99.90;;;;;;4969704;28;21171;-88
2023/03/30 09:48:41;;;;;;;;;;;11.40;99.90;;;;;;4956520;28;19934;-91
2023/03/30 09:51:19;;;;;;;;;;;11.40;99.90;;;;;;4983698;28;19950;-90
2023/03/30 09:53:48;;;;;;;;;;;11.40;99.90;;;;;;4982180;28;19925;-88
2023/03/30 09:56:20;;;;;;;;;;;11.30;99.90;;;;;;4968574;28;19937;-89
2023/03/30 09:58:47;;;;;;;;;;;11.40;99.90;;;;;;4960330;28;19926;-89
2023/03/30 10:01:15;;;;;;;;;;;11.40;99.90;;;;;;4958166;28;20021;-88
2023/03/30 10:03:43;;;;;;;;;;;11.40;99.90;;;;;;4961161;28;19934;-89
2023/03/30 10:06:11;;;;;;;;;;;11.40;99.90;;;;;;4984935;28;19942;-88
2023/03/30 10:08:42;;;;;;;;;;;11.40;99.90;;;;;;4959209;28;19926;-87
2023/03/30 10:11:10;;;;;;;;;;;11.40;99.90;;;;;;4963549;28;19927;-88
2023/03/30 10:13:38;;;;;;;;;;;11.40;99.90;;;;;;4977100;28;19934;-91
2023/03/30 10:16:07;;;;;;;;;;;11.40;99.90;;;;;;4967645;28;20013;-89
2023/03/30 10:18:37;;;;;;;;;;;11.30;99.90;;;;;;4964526;28;19926;-86
2023/03/30 10:21:05;;;;;;;;;;;11.30;99.90;;;;;;4963553;28;19934;-86
2023/03/30 10:23:33;;;;;;;;;;;11.30;99.90;;;;;;4962327;28;19933;-88
2023/03/30 10:26:03;;;;;;;;;;;11.30;99.90;;;;;;4965027;28;19932;-88
2023/03/30 10:28:32;;;;;;;;;;;11.30;99.90;;;;;;4963530;28;19930;-91
2023/03/30 10:31:00;;;;;;;;;;;11.30;99.90;;;;;;4965883;28;20281;-90
2023/03/30 10:33:28;;;;;;;;;;;11.30;99.90;;;;;;4959093;28;19930;-88
2023/03/30 10:35:59;;;;;;;;;;;11.30;99.90;;;;;;4961051;28;19946;-88
2023/03/30 10:38:32;;;;;;;;;;;11.20;99.90;;;;;;4968753;28;19930;-89
2023/03/30 10:41:02;;;;;;;;;;;11.20;99.90;;;;;;4967049;28;19926;-88
2023/03/30 10:43:31;;;;;;;;;;;11.20;99.90;;;;;;4978374;28;19941;-92
2023/03/30 10:45:59;;;;;;;;;;;11.20;99.90;;;;;;4962479;28;19934;-88
2023/03/30 10:48:39;;;;;;;;;;;11.20;99.90;;;;;;4959161;28;19930;-91
2023/03/30 10:51:10;;;;;;;;;;;11.20;99.90;;;;;;4965108;28;19977;-88
2023/03/30 10:53:43;;;;;;;;;;;11.20;99.90;;;;;;4967468;28;19934;-91
2023/03/30 10:56:15;;;;;;;;;;;11.20;99.90;;;;;;4969395;28;20004;-90
2023/03/30 10:58:54;;;;;;;;;;;11.20;99.90;;;;;;4967811;28;19926;-92
2023/03/30 11:01:28;;;;;;;;;;;11.20;99.90;;;;;;4957243;28;20456;-88
2023/03/30 11:03:58;;;;;;;;;;;11.10;99.90;;;;;;4982258;28;20036;-90
2023/03/30 11:06:27;;;;;;;;;;;11.20;99.90;;;;;;4963598;28;19926;-88
2023/03/30 11:08:56;;;;;;;;;;;11.20;99.90;;;;;;4962805;28;19963;-92
2023/03/30 11:11:25;;;;;;;;;;;11.10;99.90;;;;;;4969509;28;19926;-90
2023/03/30 11:14:00;;;;;;;;;;;11.10;99.90;;;;;;4964992;28;19926;-93
2023/03/30 11:16:33;;;;;;;;;;;11.10;99.90;;;;;;4962608;28;19938;-83
2023/03/30 11:19:03;;;;;;;;;;;11.10;99.90;;;;;;4958691;28;19927;-87
2023/03/30 11:21:33;;;;;;;;;;;11.10;99.90;;;;;;4972159;28;20025;-87
2023/03/30 11:24:02;;;;;;;;;;;11.10;99.90;;;;;;4966435;28;19930;-89
2023/03/30 11:26:32;;;;;;;;;;;11.10;99.90;;;;;;4966611;28;19926;-91
2023/03/30 11:29:02;;;;;;;;;;;11.10;99.90;;;;;;4966586;28;19969;-91
2023/03/30 11:31:40;;;;;;;;;;;11.10;99.90;;;;;;4967941;28;19933;-91
2023/03/30 11:34:13;;;;;;;;;;;11.10;99.90;;;;;;4964478;28;20261;-90
2023/03/30 11:36:43;;;;;;;;;;;11.10;99.90;;;;;;4963790;28;19934;-89
2023/03/30 11:39:13;;;;;;;;;;;11.20;99.90;;;;;;4963600;28;19933;-90
2023/03/30 11:41:42;;;;;;;;;;;11.20;99.90;;;;;;4975200;28;19933;-89
2023/03/30 11:44:11;;;;;;;;;;;11.20;99.90;;;;;;4965120;28;19926;-88
2023/03/30 11:46:42;;;;;;;;;;;11.20;99.90;;;;;;4967431;28;20467;-88
2023/03/30 11:49:13;;;;;;;;;;;11.20;99.90;;;;;;4967184;28;20024;-87
2023/03/30 11:51:48;;;;;;;;;;;11.20;99.90;;;;;;4966052;28;19934;-91
2023/03/30 11:54:48;;;;;;;;;;;11.20;99.90;;;;;;4971228;28;20420;-88
2023/03/30 11:57:21;;;;;;;;;;;11.20;99.90;;;;;;4870895;29;19942;-88
2023/03/30 11:59:55;;;;;;;;;;;11.20;99.90;;;;;;4871159;29;19947;-90
2023/03/30 12:02:26;;;;;;;;;;;11.20;99.90;;;;;;4927813;28;20033;-92
2023/03/30 12:04:55;;;;;;;;;;;11.20;99.90;;;;;;4969059;28;20455;-93
2023/03/30 12:07:27;;;;;;;;;;;11.20;99.90;;;;;;4973480;28;19941;-93
2023/03/30 12:09:54;;;;;;;;;;;11.20;99.90;;;;;;4964111;28;19936;-88
2023/03/30 12:12:24;;;;;;;;;;;11.30;99.90;;;;;;4966471;28;20385;-88
2023/03/30 12:14:58;;;;;;;;;;;11.20;99.90;;;;;;4967052;28;19984;-88
2023/03/30 12:17:31;;;;;;;;;;;11.20;99.90;;;;;;4964967;28;19926;-92
2023/03/30 12:20:03;;;;;;;;;;;11.20;99.90;;;;;;4966908;28;19989;-90
2023/03/30 12:22:33;;;;;;;;;;;11.20;99.90;;;;;;4966199;28;19933;-89
2023/03/30 12:25:03;;;;;;;;;;;11.20;99.90;;;;;;4985861;28;19926;-89
2023/03/30 12:27:34;;;;;;;;;;;11.20;99.90;;;;;;4972744;28;19938;-88
2023/03/30 12:30:13;;;;;;;;;;;11.30;99.90;;;;;;4968811;28;20404;-88
2023/03/30 12:32:56;;;;;;;;;;;11.30;99.90;;;;;;4970526;28;19994;-89
2023/03/30 12:35:41;;;;;;;;;;;11.30;99.90;;;;;;4966509;28;19926;-90
2023/03/30 12:38:08;;;;;;;;;;;11.30;99.90;;;;;;4964696;28;19944;-90
2023/03/30 12:40:37;;;;;;;;;;;11.30;99.90;;;;;;4970045;28;19926;-89
2023/03/30 12:43:08;;;;;;;;;;;11.30;99.90;;;;;;4966821;28;19934;-89
2023/03/30 12:45:37;;;;;;;;;;;11.40;99.90;;;;;;4994419;28;20647;-88
2023/03/30 12:48:14;;;;;;;;;;;11.30;99.90;;;;;;4972144;28;19934;-88
2023/03/30 12:50:45;;;;;;;;;;;11.40;99.90;;;;;;4965348;28;20320;-90
2023/03/30 12:53:27;;;;;;;;;;;11.40;99.90;;;;;;4965633;28;19937;-91
2023/03/30 12:56:00;;;;;;;;;;;11.40;99.90;;;;;;4964421;28;20543;-89
2023/03/30 12:58:43;;;;;;;;;;;11.40;99.90;;;;;;4959728;28;19942;-89
2023/03/30 13:01:25;;;;;;;;;;;11.40;99.90;;;;;;4956460;28;19935;-93
2023/03/30 13:03:53;;;;;;;;;;;11.40;99.90;;;;;;4963529;28;19934;-87
2023/03/30 13:06:25;;;;;;;;;;;11.40;99.90;;;;;;4959862;28;20013;-88
2023/03/30 13:08:56;;;;;;;;;;;11.40;99.90;;;;;;4961459;28;20385;-92
2023/03/30 13:11:23;;;;;;;;;;;11.50;99.90;;;;;;4969860;28;19981;-93
2023/03/30 13:13:52;;;;;;;;;;;11.50;99.90;;;;;;4990305;28;19930;-92
2023/03/30 13:16:47;;;;;;;;;;;11.50;99.90;;;;;;4984144;28;19930;-91
2023/03/30 13:19:20;;;;;;;;;;;11.50;99.90;;;;;;4967874;28;19926;-89
2023/03/30 13:21:47;;;;;;;;;;;11.50;99.90;;;;;;4963733;28;19933;-91
2023/03/30 13:24:35;;;;;;;;;;;11.50;99.90;;;;;;4961813;28;21389;-89
2023/03/30 13:27:21;;;;;;;;;;;11.60;99.90;;;;;;4962482;28;20390;-93
2023/03/30 13:29:53;;;;;;;;;;;11.60;99.90;;;;;;4959840;28;20017;-93
2023/03/30 13:32:30;;;;;;;;;;;11.60;99.90;;;;;;4962932;28;19981;-92
2023/03/30 13:35:10;;;;;;;;;;;11.60;99.90;;;;;;4983103;28;19998;-89
2023/03/30 13:37:48;;;;;;;;;;;11.60;99.90;;;;;;4962315;28;19934;-89
2023/03/30 13:40:18;;;;;;;;;;;11.60;99.90;;;;;;4961943;28;19926;-89
2023/03/30 13:42:49;;;;;;;;;;;11.60;99.90;;;;;;4961658;28;19931;-90
2023/03/30 13:45:33;;;;;;;;;;;11.70;99.90;;;;;;4966071;28;20129;-90
2023/03/30 13:48:14;;;;;;;;;;;11.70;99.90;;;;;;4964532;28;19929;-94
2023/03/30 13:50:45;;;;;;;;;;;11.70;99.90;;;;;;4969004;28;19930;-88
2023/03/30 13:53:14;;;;;;;;;;;11.70;99.90;;;;;;4960179;28;19934;-87
2023/03/30 13:55:42;;;;;;;;;;;11.70;99.90;;;;;;4969791;28;20309;-87
2023/03/30 13:58:12;;;;;;;;;;;11.70;99.90;;;;;;4960532;28;20017;-89
2023/03/30 14:00:42;;;;;;;;;;;11.70;99.90;;;;;;4953454;28;20397;-93
2023/03/30 14:03:30;;;;;;;;;;;11.80;99.90;;;;;;4966478;28;20028;-88
2023/03/30 14:06:02;;;;;;;;;;;11.80;99.90;;;;;;4964039;28;19933;-90
2023/03/30 14:08:33;;;;;;;;;;;11.90;99.90;;;;;;4976594;28;19973;-90
2023/03/30 14:11:00;;;;;;;;;;;11.90;99.90;;;;;;4962091;28;19934;-92
2023/03/30 14:13:27;;;;;;;;;;;11.90;99.90;;;;;;4961076;28;20033;-88
2023/03/30 14:15:55;;;;;;;;;;;11.90;99.90;;;;;;4961915;28;19933;-86
2023/03/30 14:18:23;;;;;;;;;;;11.90;99.90;;;;;;4961849;28;21087;-88
2023/03/30 14:20:54;;;;;;;;;;;12.00;99.90;;;;;;4959419;28;20460;-87
2023/03/30 14:23:26;;;;;;;;;;;12.10;99.90;;;;;;4957886;28;19945;-87
2023/03/30 14:25:53;;;;;;;;;;;12.20;99.90;;;;;;4964779;28;19973;-87
2023/03/30 14:28:21;;;;;;;;;;;12.20;99.90;;;;;;4959809;28;20029;-87
2023/03/30 14:30:49;;;;;;;;;;;12.30;99.90;;;;;;4960411;28;19973;-89
2023/03/30 14:33:17;;;;;;;;;;;12.30;99.90;;;;;;4960931;28;20020;-87
2023/03/30 14:35:45;;;;;;;;;;;12.30;99.90;;;;;;4966387;28;20469;-90
2023/03/30 14:38:16;;;;;;;;;;;12.30;99.90;;;;;;4959634;28;19927;-87
2023/03/30 14:40:43;;;;;;;;;;;12.40;99.90;;;;;;4975207;28;20303;-87
2023/03/30 14:43:12;;;;;;;;;;;12.40;99.90;;;;;;4959402;28;19930;-90
2023/03/30 14:45:40;;;;;;;;;;;12.40;99.90;;;;;;4951097;28;19926;-87
2023/03/30 14:48:07;;;;;;;;;;;12.40;99.90;;;;;;4962064;28;19937;-86